sensor_id;sensor_type;location;lat;lon;timestamp;temperature;humidity
65770;DHT22;52512;47.650;8.578;2022-10-04T00:00:57;9.90;99.90
65770;DHT22;52512;47.650;8.578;2022-10-04T00:03:31;9.90;99.90
65770;DHT22;52512;47.650;8.578;2022-10-04T00:05:59;9.90;99.90
65770;DHT22;52512;47.650;8.578;2022-10-04T00:11:27;9.90;99.90
65770;DHT22;52512;47.650;8.578;2022-10-04T00:14:08;9.80;99.90
65770;DHT22;52512;47.650;8.578;2022-10-04T00:16:39;9.80;99.90
65770;DHT22;52512;47.650;8.578;2022-10-04T00:24:26;9.70;99.90
65770;DHT22;52512;47.650;8.578;2022-10-04T00:29:36;9.70;99.90
65770;DHT22;52512;47.650;8.578;2022-10-04T00:34:48;9.60;99.90
65770;DHT22;52512;47.650;8.578;2022-10-04T00:37:16;9.60;99.90
65770;DHT22;52512;47.650;8.578;2022-10-04T00:39:44;9.60;99.90
65770;DHT22;52512;47.650;8.578;2022-10-04T00:42:35;9.60;99.90
65770;DHT22;52512;47.650;8.578;2022-10-04T00:50:26;9.50;99.90
65770;DHT22;52512;47.650;8.578;2022-10-04T00:52:56;9.50;99.90
65770;DHT22;52512;47.650;8.578;2022-10-04T00:55:43;9.40;99.90
65770;DHT22;52512;47.650;8.578;2022-10-04T00:58:20;9.40;99.90
65770;DHT22;52512;47.650;8.578;2022-10-04T01:00:47;9.40;99.90
65770;DHT22;52512;47.650;8.578;2022-10-04T01:03:19;9.40;99.90
65770;DHT22;52512;47.650;8.578;2022-10-04T01:05:54;9.40;99.90
65770;DHT22;52512;47.650;8.578;2022-10-04T01:08:27;9.30;99.90
65770;DHT22;52512;47.650;8.578;2022-10-04T01:11:19;9.30;99.90
65770;DHT22;52512;47.650;8.578;2022-10-04T01:13:56;9.30;99.90
65770;DHT22;52512;47.650;8.578;2022-10-04T01:16:28;9.30;99.90
65770;DHT22;52512;47.650;8.578;2022-10-04T01:18:54;9.20;99.90
65770;DHT22;52512;47.650;8.578;2022-10-04T01:21:40;9.20;99.90
65770;DHT22;52512;47.650;8.578;2022-10-04T01:26:34;9.20;99.90
65770;DHT22;52512;47.650;8.578;2022-10-04T01:29:23;9.20;99.90
65770;DHT22;52512;47.650;8.578;2022-10-04T01:31:54;9.10;99.90
65770;DHT22;52512;47.650;8.578;2022-10-04T01:34:22;9.10;99.90
65770;DHT22;52512;47.650;8.578;2022-10-04T01:36:51;9.10;99.90
65770;DHT22;52512;47.650;8.578;2022-10-04T01:39:19;9.10;99.90
65770;DHT22;52512;47.650;8.578;2022-10-04T01:44:38;9.00;99.90
65770;DHT22;52512;47.650;8.578;2022-10-04T01:47:09;9.00;99.90
65770;DHT22;52512;47.650;8.578;2022-10-04T01:49:40;8.90;99.90
65770;DHT22;52512;47.650;8.578;2022-10-04T01:52:13;8.90;99.90
65770;DHT22;52512;47.650;8.578;2022-10-04T01:54:47;8.90;99.90
65770;DHT22;52512;47.650;8.578;2022-10-04T02:00:05;8.90;99.90
65770;DHT22;52512;47.650;8.578;2022-10-04T02:05:07;8.90;99.90
65770;DHT22;52512;47.650;8.578;2022-10-04T02:07:35;8.90;99.90
65770;DHT22;52512;47.650;8.578;2022-10-04T02:10:08;8.90;99.90
65770;DHT22;52512;47.650;8.578;2022-10-04T02:12:35;8.90;99.90
65770;DHT22;52512;47.650;8.578;2022-10-04T02:15:06;8.90;99.90
65770;DHT22;52512;47.650;8.578;2022-10-04T02:17:36;8.90;99.90
65770;DHT22;52512;47.650;8.578;2022-10-04T02:20:10;8.80;99.90
65770;DHT22;52512;47.650;8.578;2022-10-04T02:22:37;8.80;99.90
65770;DHT22;52512;47.650;8.578;2022-10-04T02:25:03;8.80;99.90
65770;DHT22;52512;47.650;8.578;2022-10-04T02:27:29;8.80;99.90
65770;DHT22;52512;47.650;8.578;2022-10-04T02:30:01;8.80;99.90
65770;DHT22;52512;47.650;8.578;2022-10-04T02:32:30;8.70;99.90
65770;DHT22;52512;47.650;8.578;2022-10-04T02:35:15;8.70;99.90
65770;DHT22;52512;47.650;8.578;2022-10-04T02:37:41;8.70;99.90
65770;DHT22;52512;47.650;8.578;2022-10-04T02:40:14;8.70;99.90
65770;DHT22;52512;47.650;8.578;2022-10-04T02:43:07;8.70;99.90
65770;DHT22;52512;47.650;8.578;2022-10-04T02:45:56;8.70;99.90
65770;DHT22;52512;47.650;8.578;2022-10-04T02:48:47;8.70;99.90
65770;DHT22;52512;47.650;8.578;2022-10-04T02:54:10;8.60;99.90
65770;DHT22;52512;47.650;8.578;2022-10-04T02:56:39;8.60;99.90
65770;DHT22;52512;47.650;8.578;2022-10-04T02:59:06;8.60;99.90
65770;DHT22;52512;47.650;8.578;2022-10-04T03:01:48;8.60;99.90
65770;DHT22;52512;47.650;8.578;2022-10-04T03:04:15;8.60;99.90
65770;DHT22;52512;47.650;8.578;2022-10-04T03:06:43;8.50;99.90
65770;DHT22;52512;47.650;8.578;2022-10-04T03:09:10;8.50;99.90
65770;DHT22;52512;47.650;8.578;2022-10-04T03:11:38;8.50;99.90
65770;DHT22;52512;47.650;8.578;2022-10-04T03:14:20;8.50;99.90
65770;DHT22;52512;47.650;8.578;2022-10-04T03:16:50;8.50;99.90
65770;DHT22;52512;47.650;8.578;2022-10-04T03:19:20;8.50;99.90
65770;DHT22;52512;47.650;8.578;2022-10-04T03:21:48;8.50;99.90
65770;DHT22;52512;47.650;8.578;2022-10-04T03:24:19;8.50;99.90
65770;DHT22;52512;47.650;8.578;2022-10-04T03:26:48;8.50;99.90
65770;DHT22;52512;47.650;8.578;2022-10-04T03:29:15;8.50;99.90
65770;DHT22;52512;47.650;8.578;2022-10-04T03:31:47;8.50;99.90
65770;DHT22;52512;47.650;8.578;2022-10-04T03:34:20;8.50;99.90
65770;DHT22;52512;47.650;8.578;2022-10-04T03:36:48;8.50;99.90
65770;DHT22;52512;47.650;8.578;2022-10-04T03:39:25;8.40;99.90
65770;DHT22;52512;47.650;8.578;2022-10-04T03:41:51;8.40;99.90
65770;DHT22;52512;47.650;8.578;2022-10-04T03:44:18;8.40;99.90
65770;DHT22;52512;47.650;8.578;2022-10-04T03:46:44;8.40;99.90
65770;DHT22;52512;47.650;8.578;2022-10-04T03:49:31;8.40;99.90
65770;DHT22;52512;47.650;8.578;2022-10-04T03:51:59;8.30;99.90
65770;DHT22;52512;47.650;8.578;2022-10-04T03:54:26;8.30;99.90
65770;DHT22;52512;47.650;8.578;2022-10-04T03:56:53;8.30;99.90
65770;DHT22;52512;47.650;8.578;2022-10-04T03:59:20;8.30;99.90
65770;DHT22;52512;47.650;8.578;2022-10-04T04:07:28;8.30;99.90
65770;DHT22;52512;47.650;8.578;2022-10-04T04:12:39;8.30;99.90
65770;DHT22;52512;47.650;8.578;2022-10-04T04:15:13;8.30;99.90
65770;DHT22;52512;47.650;8.578;2022-10-04T04:17:46;8.30;99.90
65770;DHT22;52512;47.650;8.578;2022-10-04T04:22:59;8.20;99.90
65770;DHT22;52512;47.650;8.578;2022-10-04T04:25:28;8.20;99.90
65770;DHT22;52512;47.650;8.578;2022-10-04T04:28:02;8.20;99.90
65770;DHT22;52512;47.650;8.578;2022-10-04T04:30:30;8.20;99.90
65770;DHT22;52512;47.650;8.578;2022-10-04T04:33:02;8.20;99.90
65770;DHT22;52512;47.650;8.578;2022-10-04T04:35:32;8.20;99.90
65770;DHT22;52512;47.650;8.578;2022-10-04T04:38:19;8.20;99.90
65770;DHT22;52512;47.650;8.578;2022-10-04T04:40:45;8.20;99.90
65770;DHT22;52512;47.650;8.578;2022-10-04T04:43:18;8.10;99.90
65770;DHT22;52512;47.650;8.578;2022-10-04T04:45:46;8.20;99.90
65770;DHT22;52512;47.650;8.578;2022-10-04T04:48:15;8.10;99.90
65770;DHT22;52512;47.650;8.578;2022-10-04T04:50:48;8.10;99.90
65770;DHT22;52512;47.650;8.578;2022-10-04T04:53:27;8.10;99.90
65770;DHT22;52512;47.650;8.578;2022-10-04T04:55:58;8.10;99.90
65770;DHT22;52512;47.650;8.578;2022-10-04T04:58:32;8.00;99.90
65770;DHT22;52512;47.650;8.578;2022-10-04T05:01:05;8.10;99.90
65770;DHT22;52512;47.650;8.578;2022-10-04T05:03:33;8.10;99.90
65770;DHT22;52512;47.650;8.578;2022-10-04T05:06:00;8.10;99.90
65770;DHT22;52512;47.650;8.578;2022-10-04T05:08:32;8.10;99.90
65770;DHT22;52512;47.650;8.578;2022-10-04T05:19:27;8.00;99.90
65770;DHT22;52512;47.650;8.578;2022-10-04T05:21:57;8.00;99.90
65770;DHT22;52512;47.650;8.578;2022-10-04T05:24:28;8.00;99.90
65770;DHT22;52512;47.650;8.578;2022-10-04T05:27:04;8.00;99.90
65770;DHT22;52512;47.650;8.578;2022-10-04T05:29:35;8.00;99.90
65770;DHT22;52512;47.650;8.578;2022-10-04T05:34:37;7.90;99.90
65770;DHT22;52512;47.650;8.578;2022-10-04T05:40:37;7.90;99.90
65770;DHT22;52512;47.650;8.578;2022-10-04T05:48:43;7.90;99.90
65770;DHT22;52512;47.650;8.578;2022-10-04T05:51:25;7.90;99.90
65770;DHT22;52512;47.650;8.578;2022-10-04T05:53:54;7.90;99.90
65770;DHT22;52512;47.650;8.578;2022-10-04T05:56:39;7.90;99.90
65770;DHT22;52512;47.650;8.578;2022-10-04T05:59:26;7.80;99.90
65770;DHT22;52512;47.650;8.578;2022-10-04T06:08:04;7.80;99.90
65770;DHT22;52512;47.650;8.578;2022-10-04T06:21:43;7.90;99.90
65770;DHT22;52512;47.650;8.578;2022-10-04T06:24:22;7.90;99.90
65770;DHT22;52512;47.650;8.578;2022-10-04T06:26:54;7.90;99.90
65770;DHT22;52512;47.650;8.578;2022-10-04T06:29:31;7.90;99.90
65770;DHT22;52512;47.650;8.578;2022-10-04T06:34:55;7.90;99.90
65770;DHT22;52512;47.650;8.578;2022-10-04T06:43:32;8.10;99.90
65770;DHT22;52512;47.650;8.578;2022-10-04T07:02:53;8.20;99.90
65770;DHT22;52512;47.650;8.578;2022-10-04T07:05:44;8.20;99.90
65770;DHT22;52512;47.650;8.578;2022-10-04T07:14:04;8.30;99.90
65770;DHT22;52512;47.650;8.578;2022-10-04T07:31:09;8.50;99.90
65770;DHT22;52512;47.650;8.578;2022-10-04T07:33:43;8.50;99.90
65770;DHT22;52512;47.650;8.578;2022-10-04T07:36:18;8.60;99.90
65770;DHT22;52512;47.650;8.578;2022-10-04T07:38:52;8.60;99.90
65770;DHT22;52512;47.650;8.578;2022-10-04T07:41:29;8.60;99.90
65770;DHT22;52512;47.650;8.578;2022-10-04T07:44:00;8.70;99.90
65770;DHT22;52512;47.650;8.578;2022-10-04T07:49:17;8.70;99.90
65770;DHT22;52512;47.650;8.578;2022-10-04T07:52:18;8.80;99.90
65770;DHT22;52512;47.650;8.578;2022-10-04T07:57:46;8.90;99.90
65770;DHT22;52512;47.650;8.578;2022-10-04T08:00:36;8.90;99.90
65770;DHT22;52512;47.650;8.578;2022-10-04T08:05:41;9.00;99.90
65770;DHT22;52512;47.650;8.578;2022-10-04T08:13:32;9.10;99.90
65770;DHT22;52512;47.650;8.578;2022-10-04T08:17:12;9.20;99.90
65770;DHT22;52512;47.650;8.578;2022-10-04T08:21:40;9.30;99.90
65770;DHT22;52512;47.650;8.578;2022-10-04T08:24:37;9.30;99.90
65770;DHT22;52512;47.650;8.578;2022-10-04T08:33:08;9.50;99.90
65770;DHT22;52512;47.650;8.578;2022-10-04T08:35:37;9.50;99.90
65770;DHT22;52512;47.650;8.578;2022-10-04T08:38:25;9.60;99.90
65770;DHT22;52512;47.650;8.578;2022-10-04T08:55:35;9.90;99.90
65770;DHT22;52512;47.650;8.578;2022-10-04T09:06:55;10.10;99.90
65770;DHT22;52512;47.650;8.578;2022-10-04T09:20:53;10.40;99.90
65770;DHT22;52512;47.650;8.578;2022-10-04T09:26:23;10.60;99.90
65770;DHT22;52512;47.650;8.578;2022-10-04T09:29:17;10.60;99.90
65770;DHT22;52512;47.650;8.578;2022-10-04T09:43:20;10.80;99.90
65770;DHT22;52512;47.650;8.578;2022-10-04T09:48:27;11.00;99.90
65770;DHT22;52512;47.650;8.578;2022-10-04T09:53:58;11.10;99.90
65770;DHT22;52512;47.650;8.578;2022-10-04T10:04:40;11.30;99.90
65770;DHT22;52512;47.650;8.578;2022-10-04T10:25:01;11.70;99.90
65770;DHT22;52512;47.650;8.578;2022-10-04T10:30:12;11.80;99.90
65770;DHT22;52512;47.650;8.578;2022-10-04T10:38:01;11.90;99.90
65770;DHT22;52512;47.650;8.578;2022-10-04T10:40:53;12.00;99.90
65770;DHT22;52512;47.650;8.578;2022-10-04T11:00:01;12.40;99.90
65770;DHT22;52512;47.650;8.578;2022-10-04T11:09:05;12.70;99.90
65770;DHT22;52512;47.650;8.578;2022-10-04T11:28:24;13.40;99.90
65770;DHT22;52512;47.650;8.578;2022-10-04T12:01:38;14.80;99.90
65770;DHT22;52512;47.650;8.578;2022-10-04T12:04:36;15.10;99.90
65770;DHT22;52512;47.650;8.578;2022-10-04T12:19:24;15.40;99.90
65770;DHT22;52512;47.650;8.578;2022-10-04T12:33:30;15.80;99.90
65770;DHT22;52512;47.650;8.578;2022-10-04T12:52:19;16.60;99.90
65770;DHT22;52512;47.650;8.578;2022-10-04T12:54:57;16.70;99.90
65770;DHT22;52512;47.650;8.578;2022-10-04T12:57:34;16.90;99.90
65770;DHT22;52512;47.650;8.578;2022-10-04T13:16:14;17.00;99.90
65770;DHT22;52512;47.650;8.578;2022-10-04T13:19:09;17.00;99.90
65770;DHT22;52512;47.650;8.578;2022-10-04T13:24:25;17.30;99.90
65770;DHT22;52512;47.650;8.578;2022-10-04T13:27:01;17.30;99.90
65770;DHT22;52512;47.650;8.578;2022-10-04T13:29:44;17.40;99.90
65770;DHT22;52512;47.650;8.578;2022-10-04T13:35:24;17.40;99.90
65770;DHT22;52512;47.650;8.578;2022-10-04T13:58:52;17.90;99.90
65770;DHT22;52512;47.650;8.578;2022-10-04T14:07:56;18.10;99.90
65770;DHT22;52512;47.650;8.578;2022-10-04T14:10:55;18.10;99.90
65770;DHT22;52512;47.650;8.578;2022-10-04T14:44:38;18.80;99.90
65770;DHT22;52512;47.650;8.578;2022-10-04T14:47:37;18.80;99.90
65770;DHT22;52512;47.650;8.578;2022-10-04T14:50:16;18.80;99.90
65770;DHT22;52512;47.650;8.578;2022-10-04T15:01:26;18.90;99.90
65770;DHT22;52512;47.650;8.578;2022-10-04T15:20:45;19.00;99.90
65770;DHT22;52512;47.650;8.578;2022-10-04T15:23:33;19.10;99.90
65770;DHT22;52512;47.650;8.578;2022-10-04T15:34:34;19.20;99.90
65770;DHT22;52512;47.650;8.578;2022-10-04T15:37:38;19.10;99.90
65770;DHT22;52512;47.650;8.578;2022-10-04T15:56:47;19.10;99.90
65770;DHT22;52512;47.650;8.578;2022-10-04T15:59:33;19.00;99.90
65770;DHT22;52512;47.650;8.578;2022-10-04T16:13:52;18.80;99.90
65770;DHT22;52512;47.650;8.578;2022-10-04T16:17:02;18.70;99.90
65770;DHT22;52512;47.650;8.578;2022-10-04T16:22:10;18.50;99.90
65770;DHT22;52512;47.650;8.578;2022-10-04T16:30:21;18.40;99.90
65770;DHT22;52512;47.650;8.578;2022-10-04T16:33:03;18.30;99.90
65770;DHT22;52512;47.650;8.578;2022-10-04T16:35:40;18.30;99.90
65770;DHT22;52512;47.650;8.578;2022-10-04T16:46:04;18.10;99.90
65770;DHT22;52512;47.650;8.578;2022-10-04T16:54:41;17.80;99.90
65770;DHT22;52512;47.650;8.578;2022-10-04T16:57:16;17.70;99.90
65770;DHT22;52512;47.650;8.578;2022-10-04T16:59:48;17.60;99.90
65770;DHT22;52512;47.650;8.578;2022-10-04T17:08:01;17.40;99.90
65770;DHT22;52512;47.650;8.578;2022-10-04T17:13:52;17.20;99.90
65770;DHT22;52512;47.650;8.578;2022-10-04T17:16:37;17.10;99.90
65770;DHT22;52512;47.650;8.578;2022-10-04T17:19:28;17.00;99.90
65770;DHT22;52512;47.650;8.578;2022-10-04T17:25:06;16.90;99.90
65770;DHT22;52512;47.650;8.578;2022-10-04T17:27:52;16.80;99.90
65770;DHT22;52512;47.650;8.578;2022-10-04T17:30:27;16.70;99.90
65770;DHT22;52512;47.650;8.578;2022-10-04T17:35:59;16.50;99.90
65770;DHT22;52512;47.650;8.578;2022-10-04T17:38:40;16.40;99.90
65770;DHT22;52512;47.650;8.578;2022-10-04T17:41:16;16.30;99.90
65770;DHT22;52512;47.650;8.578;2022-10-04T17:47:03;16.10;99.90
65770;DHT22;52512;47.650;8.578;2022-10-04T17:50:02;16.10;99.90
65770;DHT22;52512;47.650;8.578;2022-10-04T17:52:55;16.00;99.90
65770;DHT22;52512;47.650;8.578;2022-10-04T17:55:50;15.90;99.90
65770;DHT22;52512;47.650;8.578;2022-10-04T17:58:51;15.80;99.90
65770;DHT22;52512;47.650;8.578;2022-10-04T18:01:31;15.80;99.90
65770;DHT22;52512;47.650;8.578;2022-10-04T18:04:31;15.70;99.90
65770;DHT22;52512;47.650;8.578;2022-10-04T18:09:41;15.50;99.90
65770;DHT22;52512;47.650;8.578;2022-10-04T18:12:30;15.60;99.90
65770;DHT22;52512;47.650;8.578;2022-10-04T18:17:44;15.30;99.90
65770;DHT22;52512;47.650;8.578;2022-10-04T18:20:26;15.20;99.90
65770;DHT22;52512;47.650;8.578;2022-10-04T18:23:18;15.20;99.90
65770;DHT22;52512;47.650;8.578;2022-10-04T18:25:51;15.10;99.90
65770;DHT22;52512;47.650;8.578;2022-10-04T18:28:20;15.10;99.90
65770;DHT22;52512;47.650;8.578;2022-10-04T18:30:56;15.00;99.90
65770;DHT22;52512;47.650;8.578;2022-10-04T18:38:33;14.80;99.90
65770;DHT22;52512;47.650;8.578;2022-10-04T18:41:20;14.80;99.90
65770;DHT22;52512;47.650;8.578;2022-10-04T18:44:05;14.70;99.90
65770;DHT22;52512;47.650;8.578;2022-10-04T18:46:39;14.70;99.90
65770;DHT22;52512;47.650;8.578;2022-10-04T18:51:59;14.50;99.90
65770;DHT22;52512;47.650;8.578;2022-10-04T19:00:10;14.40;99.90
65770;DHT22;52512;47.650;8.578;2022-10-04T19:05:53;14.30;99.90
65770;DHT22;52512;47.650;8.578;2022-10-04T19:08:41;14.20;99.90
65770;DHT22;52512;47.650;8.578;2022-10-04T19:11:54;14.20;99.90
65770;DHT22;52512;47.650;8.578;2022-10-04T19:16:58;14.10;99.90
65770;DHT22;52512;47.650;8.578;2022-10-04T19:19:41;14.00;99.90
65770;DHT22;52512;47.650;8.578;2022-10-04T19:27:36;13.90;99.90
65770;DHT22;52512;47.650;8.578;2022-10-04T19:38:32;13.70;99.90
65770;DHT22;52512;47.650;8.578;2022-10-04T19:41:10;13.60;99.90
65770;DHT22;52512;47.650;8.578;2022-10-04T19:43:46;13.60;99.90
65770;DHT22;52512;47.650;8.578;2022-10-04T19:46:26;13.50;99.90
65770;DHT22;52512;47.650;8.578;2022-10-04T19:48:56;13.40;99.90
65770;DHT22;52512;47.650;8.578;2022-10-04T19:51:43;13.40;99.90
65770;DHT22;52512;47.650;8.578;2022-10-04T19:54:19;13.40;99.90
65770;DHT22;52512;47.650;8.578;2022-10-04T19:56:48;13.30;99.90
65770;DHT22;52512;47.650;8.578;2022-10-04T19:59:34;13.30;99.90
65770;DHT22;52512;47.650;8.578;2022-10-04T20:02:01;13.30;99.90
65770;DHT22;52512;47.650;8.578;2022-10-04T20:04:32;13.20;99.90
65770;DHT22;52512;47.650;8.578;2022-10-04T20:07:23;13.20;99.90
65770;DHT22;52512;47.650;8.578;2022-10-04T20:09:52;13.10;99.90
65770;DHT22;52512;47.650;8.578;2022-10-04T20:15:13;13.00;99.90
65770;DHT22;52512;47.650;8.578;2022-10-04T20:17:40;12.90;99.90
65770;DHT22;52512;47.650;8.578;2022-10-04T20:20:06;12.90;99.90
65770;DHT22;52512;47.650;8.578;2022-10-04T20:22:52;12.90;99.90
65770;DHT22;52512;47.650;8.578;2022-10-04T20:30:55;12.70;99.90
65770;DHT22;52512;47.650;8.578;2022-10-04T20:36:09;12.60;99.90
65770;DHT22;52512;47.650;8.578;2022-10-04T20:39:02;12.60;99.90
65770;DHT22;52512;47.650;8.578;2022-10-04T20:49:45;12.40;99.90
65770;DHT22;52512;47.650;8.578;2022-10-04T20:52:14;12.40;99.90
65770;DHT22;52512;47.650;8.578;2022-10-04T20:54:48;12.40;99.90
65770;DHT22;52512;47.650;8.578;2022-10-04T20:57:18;12.30;99.90
65770;DHT22;52512;47.650;8.578;2022-10-04T20:59:46;12.20;99.90
65770;DHT22;52512;47.650;8.578;2022-10-04T21:02:15;12.20;99.90
65770;DHT22;52512;47.650;8.578;2022-10-04T21:04:42;12.10;99.90
65770;DHT22;52512;47.650;8.578;2022-10-04T21:07:15;12.20;99.90
65770;DHT22;52512;47.650;8.578;2022-10-04T21:09:41;12.10;99.90
65770;DHT22;52512;47.650;8.578;2022-10-04T21:15:22;12.10;99.90
65770;DHT22;52512;47.650;8.578;2022-10-04T21:18:06;12.00;99.90
65770;DHT22;52512;47.650;8.578;2022-10-04T21:20:46;12.00;99.90
65770;DHT22;52512;47.650;8.578;2022-10-04T21:23:18;12.00;99.90
65770;DHT22;52512;47.650;8.578;2022-10-04T21:25:45;11.90;99.90
65770;DHT22;52512;47.650;8.578;2022-10-04T21:28:32;12.00;99.90
65770;DHT22;52512;47.650;8.578;2022-10-04T21:30:59;11.90;99.90
65770;DHT22;52512;47.650;8.578;2022-10-04T21:33:26;11.80;99.90
65770;DHT22;52512;47.650;8.578;2022-10-04T21:35:52;11.80;99.90
65770;DHT22;52512;47.650;8.578;2022-10-04T21:38:18;11.80;99.90
65770;DHT22;52512;47.650;8.578;2022-10-04T21:40:44;11.80;99.90
65770;DHT22;52512;47.650;8.578;2022-10-04T21:43:09;11.80;99.90
65770;DHT22;52512;47.650;8.578;2022-10-04T21:45:35;11.70;99.90
65770;DHT22;52512;47.650;8.578;2022-10-04T21:48:01;11.70;99.90
65770;DHT22;52512;47.650;8.578;2022-10-04T21:50:26;11.70;99.90
65770;DHT22;52512;47.650;8.578;2022-10-04T21:52:52;11.70;99.90
65770;DHT22;52512;47.650;8.578;2022-10-04T21:55:18;11.60;99.90
65770;DHT22;52512;47.650;8.578;2022-10-04T21:57:43;11.60;99.90
65770;DHT22;52512;47.650;8.578;2022-10-04T22:00:09;11.60;99.90
65770;DHT22;52512;47.650;8.578;2022-10-04T22:02:35;11.60;99.90
65770;DHT22;52512;47.650;8.578;2022-10-04T22:05:01;11.50;99.90
65770;DHT22;52512;47.650;8.578;2022-10-04T22:07:27;11.50;99.90
65770;DHT22;52512;47.650;8.578;2022-10-04T22:09:52;11.50;99.90
65770;DHT22;52512;47.650;8.578;2022-10-04T22:12:18;11.40;99.90
65770;DHT22;52512;47.650;8.578;2022-10-04T22:14:44;11.40;99.90
65770;DHT22;52512;47.650;8.578;2022-10-04T22:17:09;11.40;99.90
65770;DHT22;52512;47.650;8.578;2022-10-04T22:19:35;11.30;99.90
65770;DHT22;52512;47.650;8.578;2022-10-04T22:22:00;11.30;99.90
65770;DHT22;52512;47.650;8.578;2022-10-04T22:24:26;11.30;99.90
65770;DHT22;52512;47.650;8.578;2022-10-04T22:26:52;11.30;99.90
65770;DHT22;52512;47.650;8.578;2022-10-04T22:29:18;11.30;99.90
65770;DHT22;52512;47.650;8.578;2022-10-04T22:31:52;11.30;99.90
65770;DHT22;52512;47.650;8.578;2022-10-04T22:34:20;11.20;99.90
65770;DHT22;52512;47.650;8.578;2022-10-04T22:36:48;11.20;99.90
65770;DHT22;52512;47.650;8.578;2022-10-04T22:39:17;11.20;99.90
65770;DHT22;52512;47.650;8.578;2022-10-04T22:41:57;11.20;99.90
65770;DHT22;52512;47.650;8.578;2022-10-04T22:44:28;11.10;99.90
65770;DHT22;52512;47.650;8.578;2022-10-04T22:46:56;11.10;99.90
65770;DHT22;52512;47.650;8.578;2022-10-04T22:49:25;11.10;99.90
65770;DHT22;52512;47.650;8.578;2022-10-04T22:51:53;11.10;99.90
65770;DHT22;52512;47.650;8.578;2022-10-04T22:54:26;11.00;99.90
65770;DHT22;52512;47.650;8.578;2022-10-04T22:56:52;11.00;99.90
65770;DHT22;52512;47.650;8.578;2022-10-04T22:59:20;11.00;99.90
65770;DHT22;52512;47.650;8.578;2022-10-04T23:01:47;11.00;99.90
65770;DHT22;52512;47.650;8.578;2022-10-04T23:04:23;11.00;99.90
65770;DHT22;52512;47.650;8.578;2022-10-04T23:06:50;10.90;99.90
65770;DHT22;52512;47.650;8.578;2022-10-04T23:09:16;10.90;99.90
65770;DHT22;52512;47.650;8.578;2022-10-04T23:11:43;10.90;99.90
65770;DHT22;52512;47.650;8.578;2022-10-04T23:14:09;10.90;99.90
65770;DHT22;52512;47.650;8.578;2022-10-04T23:16:35;10.80;99.90
65770;DHT22;52512;47.650;8.578;2022-10-04T23:19:10;10.80;99.90
65770;DHT22;52512;47.650;8.578;2022-10-04T23:21:38;10.80;99.90
65770;DHT22;52512;47.650;8.578;2022-10-04T23:24:21;10.80;99.90
65770;DHT22;52512;47.650;8.578;2022-10-04T23:26:56;10.70;99.90
65770;DHT22;52512;47.650;8.578;2022-10-04T23:29:25;10.70;99.90
65770;DHT22;52512;47.650;8.578;2022-10-04T23:31:52;10.70;99.90
65770;DHT22;52512;47.650;8.578;2022-10-04T23:36:59;10.70;99.90
65770;DHT22;52512;47.650;8.578;2022-10-04T23:39:32;10.60;99.90
65770;DHT22;52512;47.650;8.578;2022-10-04T23:41:59;10.60;99.90
65770;DHT22;52512;47.650;8.578;2022-10-04T23:44:33;10.50;99.90
65770;DHT22;52512;47.650;8.578;2022-10-04T23:46:59;10.50;99.90
65770;DHT22;52512;47.650;8.578;2022-10-04T23:49:26;10.50;99.90
65770;DHT22;52512;47.650;8.578;2022-10-04T23:51:56;10.50;99.90
65770;DHT22;52512;47.650;8.578;2022-10-04T23:54:24;10.50;99.90
65770;DHT22;52512;47.650;8.578;2022-10-04T23:56:50;10.50;99.90
65770;DHT22;52512;47.650;8.578;2022-10-04T23:59:18;10.40;99.90
